»·PEaware :: N196EC L52-KSNA

N196EC :: L52-KSNA

FLIGHT INFORMATION

Flight Status: Arrived
Operator: Privately registered:
United States
More flights under this callsign
Pilot: Adrián R. (20842)
Aircraft: AERMACCHI WARRIOR
(F260)
More flights by this aircraft type
Origin: L52 Oceano Co
United States
Destination: KSNA John Wayne-Orange Co
United States
More flights between these airports :: More routes between these airports
Route: +
File this flight plan on PilotEdge
Remarks:
Altitude:
(Current/Filed)
5,500ft
Speed:
(Current/Filed)
0kts
Departed: 03-Dec-18 08:32 AM
Arrived: 03-Dec-18 09:35 AM
Distance/Time
Traveled:
161nm/1:03
Distance/Time
To Go:
Arrived

Flight Plot

Page will automatically refresh every two minutes.


Map Options




Map Legend


Flown Route
Filed Route
Departure Airport
Arrival Airport
Navaid (VOR, NDB)
Fix

Horizontal Profiles

Position Reports

Time Latitude Longitude Heading Altitude Ground
Speed
03-Dec-18 08:34 34.814626 -120.339738 142 5499ft 149kts
03-Dec-18 08:35 34.781395 -120.310528 140 5501ft 149kts
03-Dec-18 08:36 34.747832 -120.280932 141 5501ft 149kts
03-Dec-18 08:37 34.714176 -120.251373 140 5498ft 149kts
03-Dec-18 08:38 34.680570 -120.222301 142 5497ft 149kts
03-Dec-18 08:39 34.644895 -120.192578 142 5288ft 152kts
03-Dec-18 08:40 34.610456 -120.163999 142 5289ft 149kts
03-Dec-18 08:41 34.576449 -120.135665 142 5290ft 148kts
03-Dec-18 08:42 34.542571 -120.107870 142 5289ft 146kts
03-Dec-18 08:43 34.508287 -120.079473 142 5291ft 152kts
03-Dec-18 08:44 34.473226 -120.050296 142 5285ft 152kts
03-Dec-18 08:45 34.451286 -120.009427 109 5289ft 147kts
03-Dec-18 08:46 34.436728 -119.965343 109 5487ft 144kts
03-Dec-18 08:47 34.421252 -119.917761 109 5485ft 158kts
03-Dec-18 08:48 34.406484 -119.867197 105 5482ft 159kts
03-Dec-18 08:49 34.396801 -119.815330 98 5481ft 157kts
03-Dec-18 08:50 34.389433 -119.763514 89 5482ft 155kts
03-Dec-18 08:51 34.387892 -119.711217 89 5482ft 155kts
03-Dec-18 08:52 34.386353 -119.658857 89 5482ft 155kts
03-Dec-18 08:53 34.384798 -119.606513 89 5482ft 155kts
03-Dec-18 08:54 34.383203 -119.557209 88 5480ft 139kts
03-Dec-18 08:55 34.375733 -119.507968 108 5483ft 156kts
03-Dec-18 08:56 34.355123 -119.461107 119 5486ft 159kts
03-Dec-18 08:57 34.332465 -119.416856 119 5488ft 160kts
03-Dec-18 08:58 34.308729 -119.371035 119 5489ft 160kts
03-Dec-18 08:59 34.287310 -119.330012 119 5490ft 161kts
03-Dec-18 09:00 34.266780 -119.290864 119 5491ft 161kts
03-Dec-18 09:01 34.243145 -119.245939 119 5491ft 161kts
03-Dec-18 09:02 34.219175 -119.200559 119 5491ft 161kts
03-Dec-18 09:03 34.195158 -119.155191 119 5491ft 158kts
03-Dec-18 09:04 34.171520 -119.110534 119 5494ft 157kts
03-Dec-18 09:05 34.148022 -119.065936 119 5496ft 158kts
03-Dec-18 09:06 34.135022 -119.016876 95 5497ft 155kts
03-Dec-18 09:07 34.127971 -118.965371 95 5498ft 155kts
03-Dec-18 09:08 34.120811 -118.913901 95 5498ft 156kts
03-Dec-18 09:09 34.118597 -118.863058 65 5501ft 149kts
03-Dec-18 09:10 34.132525 -118.815620 65 5498ft 149kts
03-Dec-18 09:11 34.146299 -118.768582 65 5497ft 148kts
03-Dec-18 09:12 34.160218 -118.721637 65 5496ft 148kts
03-Dec-18 09:13 34.174115 -118.675418 65 5495ft 147kts
03-Dec-18 09:14 34.184218 -118.627830 88 5493ft 150kts
03-Dec-18 09:15 34.165912 -118.581957 119 5496ft 155kts
03-Dec-18 09:16 34.143206 -118.538359 118 5496ft 154kts
03-Dec-18 09:17 34.104683 -118.514750 155 5498ft 158kts
03-Dec-18 09:18 34.063898 -118.494909 155 5498ft 158kts
03-Dec-18 09:19 34.023248 -118.475232 155 5499ft 158kts
03-Dec-18 09:20 33.982980 -118.455790 156 5499ft 158kts
03-Dec-18 09:21 33.944077 -118.436003 155 5500ft 158kts
03-Dec-18 09:22 33.908951 -118.405744 135 5502ft 156kts
03-Dec-18 09:23 33.877931 -118.372335 136 5501ft 156kts
03-Dec-18 09:24 33.845891 -118.337998 137 5508ft 159kts
03-Dec-18 09:25 33.814879 -118.304843 137 5507ft 160kts
03-Dec-18 09:26 33.781593 -118.269183 137 5506ft 160kts
03-Dec-18 09:27 33.748346 -118.233567 137 5505ft 160kts
03-Dec-18 09:28 33.714340 -118.197174 137 5190ft 176kts
03-Dec-18 09:29 33.686757 -118.146922 112 4307ft 183kts
03-Dec-18 09:30 33.675450 -118.089990 93 3392ft 165kts
03-Dec-18 09:31 33.674866 -118.039353 89 2361ft 144kts
03-Dec-18 09:32 33.675583 -117.992807 87 1488ft 133kts
03-Dec-18 09:33 33.677773 -117.948951 84 1490ft 137kts
03-Dec-18 09:34 33.681362 -117.903324 94 1479ft 127kts
03-Dec-18 09:35 33.673175 -117.867767 106 1323ft 99kts
03-Dec-18 09:36 33.683607 -117.844877 27 866ft 89kts
03-Dec-18 09:37 33.688129 -117.858939 213 295ft 81kts
03-Dec-18 09:38 33.674593 -117.867650 208 59ft 22kts
03-Dec-18 09:39 33.672659 -117.866370 72 59ft 2kts
03-Dec-18 09:40 33.672718 -117.866416 246 59ft 0kts
03-Dec-18 09:41 33.672718 -117.866416 247 59ft 0kts
03-Dec-18 09:42 33.672718 -117.866416 247 59ft 0kts
03-Dec-18 09:43 33.672718 -117.866416 247 59ft 0kts
03-Dec-18 09:44 33.672718 -117.866416 247 59ft 0kts
03-Dec-18 09:45 33.672718 -117.866416 247 59ft 0kts
03-Dec-18 09:46 33.672718 -117.866416 247 59ft 0kts
03-Dec-18 09:47 33.672718 -117.866416 247 59ft 0kts
03-Dec-18 09:48 33.672718 -117.866416 247 59ft 0kts
03-Dec-18 09:49 33.672718 -117.866416 247 59ft 0kts
03-Dec-18 09:50 33.672718 -117.866416 247 59ft 0kts
03-Dec-18 09:51 33.672718 -117.866416 247 59ft 0kts
03-Dec-18 09:52 33.672718 -117.866416 247 59ft 0kts

Navigation Log

Ident Type
Flight plan parsing failed, navigation log unavailable